Time;durP1;ratioP1;P1;durP2;ratioP2;P2;SDS_P1;SDS_P2;PMS_P1;PMS_P2;Temp;Humidity;BMP_temperature;BMP_pressure;BME280_temperature;BME280_humidity;BME280_pressure;Samples;Min_cycle;Max_cycle;Signal;HPM_P1;HPM_P2
2022/04/29 00:00:01;;;;;;;;;;;;;;;;;;5051932;28;1067;-70
2022/04/29 00:02:28;;;;;;;;;;;;;;;;;;5052002;28;865;-71
2022/04/29 00:04:56;;;;;;;;;;;;;;;;;;5052009;28;835;-71
2022/04/29 00:07:23;;;;;;;;;;;;;;;;;;5051658;28;1364;-71
2022/04/29 00:09:49;;;;;;;;;;;;;;;;;;5051497;28;1023;-71
2022/04/29 00:12:15;;;;;;;;;;;;;;;;;;5051664;28;1142;-71
2022/04/29 00:14:41;;;;;;;;;;;;;;;;;;5051674;28;1969;-71
2022/04/29 00:17:08;;;;;;;;;;;;;;;;;;5051337;28;1348;-71
2022/04/29 00:19:34;;;;;;;;;;;;;;;;;;5051495;28;874;-71
2022/04/29 00:22:01;;;;;;;;;;;;;;;;;;5051611;28;806;-71
2022/04/29 00:24:27;;;;;;;;;;;;;;;;;;5051734;28;914;-71
2022/04/29 00:26:54;;;;;;;;;;;;;;;;;;5051184;28;1404;-70
2022/04/29 00:29:20;;;;;;;;;;;;;;;;;;5051650;28;979;-70
2022/04/29 00:31:46;;;;;;;;;;;;;;;;;;5051420;28;862;-71
2022/04/29 00:34:13;;;;;;;;;;;;;;;;;;5066543;28;1914;-70
2022/04/29 00:36:39;;;;;;;;;;;;;;;;;;5049664;28;1346;-71
2022/04/29 00:39:06;;;;;;;;;;;;;;;;;;5051485;28;783;-71
2022/04/29 00:41:33;;;;;;;;;;;;;;;;;;5051249;28;1087;-71
2022/04/29 00:43:59;;;;;;;;;;;;;;;;;;5051045;28;787;-71
2022/04/29 00:46:26;;;;;;;;;;;;;;;;;;5050853;28;1322;-71
2022/04/29 00:48:52;;;;;;;;;;;;;;;;;;5050986;28;1114;-71
2022/04/29 00:51:18;;;;;;;;;;;;;;;;;;5050981;28;1127;-70
2022/04/29 00:53:44;;;;;;;;;;;;;;;;;;5066216;28;1965;-70
2022/04/29 00:56:12;;;;;;;;;;;;;;;;;;5049412;28;1342;-70
2022/04/29 00:58:39;;;;;;;;;;;;;;;;;;5049625;28;1421;-71
2022/04/29 01:01:06;;;;;;;;;;;;;;;;;;5049744;28;1299;-71
2022/04/29 01:03:33;;;;;;;;;;;;;;;;;;5049849;28;1316;-71
2022/04/29 01:05:59;;;;;;;;;;;;;;;;;;5051130;28;853;-70
2022/04/29 01:08:26;;;;;;;;;;;;;;;;;;5064841;28;1380;-71
2022/04/29 01:10:52;;;;;;;;;;;;;;;;;;5048731;28;1610;-71
2022/04/29 01:13:20;;;;;;;;;;;;;;;;;;5049488;28;926;-71
2022/04/29 01:15:48;;;;;;;;;;;;;;;;;;5049383;28;1922;-70
2022/04/29 01:18:16;;;;;;;;;;;;;;;;;;5049270;28;1312;-71
2022/04/29 01:20:43;;;;;;;;;;;;;;;;;;5049282;28;1234;-71
2022/04/29 01:23:11;;;;;;;;;;;;;;;;;;5049482;28;1333;-70
2022/04/29 01:25:37;;;;;;;;;;;;;;;;;;5049400;28;1471;-71
2022/04/29 01:28:04;;;;;;;;;;;;;;;;;;5048741;28;1409;-71
2022/04/29 01:30:31;;;;;;;;;;;;;;;;;;5050344;28;826;-70
2022/04/29 01:32:57;;;;;;;;;;;;;;;;;;5049153;28;937;-70
2022/04/29 01:35:24;;;;;;;;;;;;;;;;;;5065873;28;1914;-71
2022/04/29 01:37:50;;;;;;;;;;;;;;;;;;5050140;28;1321;-70
2022/04/29 01:40:19;;;;;;;;;;;;;;;;;;5048754;28;1211;-70
2022/04/29 01:42:45;;;;;;;;;;;;;;;;;;5050375;28;734;-71
2022/04/29 01:45:12;;;;;;;;;;;;;;;;;;5050759;28;794;-71
2022/04/29 01:47:50;;;;;;;;;;;;;;;;;;5048997;28;1338;-70
2022/04/29 01:50:34;;;;;;;;;;;;;;;;;;5050335;28;821;-70
2022/04/29 01:53:00;;;;;;;;;;;;;;;;;;5050284;28;954;-71
2022/04/29 01:55:28;;;;;;;;;;;;;;;;;;5067014;28;1930;-71
2022/04/29 01:57:56;;;;;;;;;;;;;;;;;;5065655;28;1309;-70
2022/04/29 02:00:22;;;;;;;;;;;;;;;;;;5048710;28;1286;-71
2022/04/29 02:02:50;;;;;;;;;;;;;;;;;;5058932;28;1799;-70
2022/04/29 02:05:17;;;;;;;;;;;;;;;;;;5063207;28;1990;-70
2022/04/29 02:07:44;;;;;;;;;;;;;;;;;;5048376;28;1428;-70
2022/04/29 02:10:11;;;;;;;;;;;;;;;;;;5061659;28;1534;-71
2022/04/29 02:12:39;;;;;;;;;;;;;;;;;;5028781;28;1247;-70
2022/04/29 02:15:27;;;;;;;;;;;;;;;;;;5028853;28;1977;-70
2022/04/29 02:17:56;;;;;;;;;;;;;;;;;;5028535;28;1408;-70
2022/04/29 02:20:25;;;;;;;;;;;;;;;;;;5030139;28;1327;-71
2022/04/29 02:22:52;;;;;;;;;;;;;;;;;;5034145;28;1083;-70
2022/04/29 02:25:19;;;;;;;;;;;;;;;;;;5033701;28;791;-70
2022/04/29 02:27:46;;;;;;;;;;;;;;;;;;5032238;28;1403;-70
2022/04/29 02:30:13;;;;;;;;;;;;;;;;;;5032605;28;1224;-70
2022/04/29 02:32:41;;;;;;;;;;;;;;;;;;5032947;28;1431;-71
2022/04/29 02:35:08;;;;;;;;;;;;;;;;;;5033582;28;1919;-71
2022/04/29 02:37:34;;;;;;;;;;;;;;;;;;5033502;28;1332;-70
2022/04/29 02:40:00;;;;;;;;;;;;;;;;;;5032546;28;1547;-70
2022/04/29 02:42:28;;;;;;;;;;;;;;;;;;5031818;28;1312;-70
2022/04/29 02:44:55;;;;;;;;;;;;;;;;;;5032158;28;1727;-70
2022/04/29 02:47:23;;;;;;;;;;;;;;;;;;5031658;28;1329;-71
2022/04/29 02:49:49;;;;;;;;;;;;;;;;;;5032405;28;970;-70
2022/04/29 02:52:15;;;;;;;;;;;;;;;;;;5033346;28;941;-70
2022/04/29 02:54:43;;;;;;;;;;;;;;;;;;5032150;28;1975;-70
2022/04/29 02:57:16;;;;;;;;;;;;;;;;;;5031470;28;1380;-70
2022/04/29 02:59:43;;;;;;;;;;;;;;;;;;5032220;28;1188;-70
2022/04/29 03:02:11;;;;;;;;;;;;;;;;;;5031707;28;1391;-70
2022/04/29 03:04:38;;;;;;;;;;;;;;;;;;5031970;28;1465;-70
2022/04/29 03:07:05;;;;;;;;;;;;;;;;;;5031185;28;1412;-70
2022/04/29 03:09:47;;;;;;;;;;;;;;;;;;5031943;28;1325;-71
2022/04/29 03:12:14;;;;;;;;;;;;;;;;;;5031833;28;1217;-70
2022/04/29 03:14:41;;;;;;;;;;;;;;;;;;5031806;28;1973;-70
2022/04/29 03:18:17;;;;;;;;;;;;;;;;;;5032577;28;1322;-70
2022/04/29 03:19:55;;;;;;;;;;;;;;;;;;5031454;28;1202;-70
2022/04/29 03:22:21;;;;;;;;;;;;;;;;;;5031785;28;1113;-70
2022/04/29 03:24:48;;;;;;;;;;;;;;;;;;5031571;28;1479;-70
2022/04/29 03:27:14;;;;;;;;;;;;;;;;;;5032110;28;1326;-70
2022/04/29 03:29:40;;;;;;;;;;;;;;;;;;5031500;28;1192;-70
2022/04/29 03:32:08;;;;;;;;;;;;;;;;;;5030583;28;1199;-70
2022/04/29 03:34:55;;;;;;;;;;;;;;;;;;5032574;28;1911;-69
2022/04/29 03:37:21;;;;;;;;;;;;;;;;;;5030610;28;1344;-70
2022/04/29 03:39:48;;;;;;;;;;;;;;;;;;5031514;28;1473;-70
2022/04/29 03:42:14;;;;;;;;;;;;;;;;;;5031277;28;1356;-70
2022/04/29 03:44:41;;;;;;;;;;;;;;;;;;5031373;28;1450;-70
2022/04/29 03:47:08;;;;;;;;;;;;;;;;;;5030773;28;1302;-70
2022/04/29 03:49:47;;;;;;;;;;;;;;;;;;5031413;28;1311;-70
2022/04/29 03:52:25;;;;;;;;;;;;;;;;;;5032437;28;892;-71
2022/04/29 03:54:56;;;;;;;;;;;;;;;;;;5030955;28;1977;-71
2022/04/29 03:57:23;;;;;;;;;;;;;;;;;;5030515;28;1434;-71
2022/04/29 03:59:49;;;;;;;;;;;;;;;;;;5034943;28;1482;-70
2022/04/29 04:02:16;;;;;;;;;;;;;;;;;;5046874;28;1711;-71
2022/04/29 04:04:46;;;;;;;;;;;;;;;;;;5050393;28;1345;-70
2022/04/29 04:07:13;;;;;;;;;;;;;;;;;;5049323;28;1853;-70
2022/04/29 04:09:52;;;;;;;;;;;;;;;;;;5050585;28;1502;-69
2022/04/29 04:12:18;;;;;;;;;;;;;;;;;;5067274;28;1362;-69
2022/04/29 04:15:08;;;;;;;;;;;;;;;;;;5048960;28;1910;-70
2022/04/29 04:17:41;;;;;;;;;;;;;;;;;;5048923;28;1414;-70
2022/04/29 04:20:08;;;;;;;;;;;;;;;;;;5049020;28;1637;-70
2022/04/29 04:22:50;;;;;;;;;;;;;;;;;;5064160;28;1388;-71
2022/04/29 04:25:17;;;;;;;;;;;;;;;;;;5049780;28;1390;-70
2022/04/29 04:27:43;;;;;;;;;;;;;;;;;;5062411;28;1494;-70
2022/04/29 04:30:10;;;;;;;;;;;;;;;;;;5049799;28;1354;-70
2022/04/29 04:32:37;;;;;;;;;;;;;;;;;;5064035;28;1467;-71
2022/04/29 04:35:04;;;;;;;;;;;;;;;;;;5063271;28;1969;-69
2022/04/29 04:37:31;;;;;;;;;;;;;;;;;;5045946;28;1494;-70
2022/04/29 04:40:00;;;;;;;;;;;;;;;;;;5046613;28;1506;-71
2022/04/29 04:42:44;;;;;;;;;;;;;;;;;;5064441;28;1447;-70
2022/04/29 04:45:11;;;;;;;;;;;;;;;;;;5065510;28;975;-69
2022/04/29 04:47:47;;;;;;;;;;;;;;;;;;5066181;28;1542;-70
2022/04/29 04:50:36;;;;;;;;;;;;;;;;;;5031705;28;1139;-69
2022/04/29 04:53:03;;;;;;;;;;;;;;;;;;5066440;28;1528;-70
2022/04/29 04:55:30;;;;;;;;;;;;;;;;;;5050909;28;1970;-70
2022/04/29 04:57:57;;;;;;;;;;;;;;;;;;5051144;28;1408;-70
2022/04/29 05:00:24;;;;;;;;;;;;;;;;;;5066568;28;819;-70
2022/04/29 05:03:07;;;;;;;;;;;;;;;;;;5066269;28;1221;-70
2022/04/29 05:06:02;;;;;;;;;;;;;;;;;;5051242;28;1115;-70
2022/04/29 05:08:29;;;;;;;;;;;;;;;;;;5065904;28;1446;-70
2022/04/29 05:10:55;;;;;;;;;;;;;;;;;;5066179;28;1175;-70
2022/04/29 05:13:23;;;;;;;;;;;;;;;;;;5065665;28;1436;-70
2022/04/29 05:15:51;;;;;;;;;;;;;;;;;;5066249;28;1985;-70
2022/04/29 05:18:26;;;;;;;;;;;;;;;;;;5065830;28;1301;-70
2022/04/29 05:21:02;;;;;;;;;;;;;;;;;;5066264;28;1500;-70
2022/04/29 05:23:28;;;;;;;;;;;;;;;;;;5066382;28;1148;-70
2022/04/29 05:26:13;;;;;;;;;;;;;;;;;;5066143;28;1067;-70
2022/04/29 05:28:59;;;;;;;;;;;;;;;;;;5050398;28;644;-70
2022/04/29 05:31:58;;;;;;;;;;;;;;;;;;5050251;28;977;-71
2022/04/29 05:34:42;;;;;;;;;;;;;;;;;;5051056;28;640;-70
2022/04/29 05:37:28;;;;;;;;;;;;;;;;;;5049925;28;1973;-71
2022/04/29 05:42:44;;;;;;;;;;;;;;;;;;5049233;28;1135;-70
2022/04/29 05:45:11;;;;;;;;;;;;;;;;;;5050622;28;945;-71
2022/04/29 05:47:39;;;;;;;;;;;;;;;;;;5050181;28;1306;-71
2022/04/29 05:50:07;;;;;;;;;;;;;;;;;;5065341;28;1200;-71
2022/04/29 05:52:36;;;;;;;;;;;;;;;;;;5048489;28;1471;-70
2022/04/29 05:55:04;;;;;;;;;;;;;;;;;;5033570;28;1422;-69
2022/04/29 05:57:32;;;;;;;;;;;;;;;;;;5022707;28;2014;-70
2022/04/29 05:59:59;;;;;;;;;;;;;;;;;;5050411;28;1394;-71
2022/04/29 06:02:55;;;;;;;;;;;;;;;;;;5050473;28;1466;-72
2022/04/29 06:05:24;;;;;;;;;;;;;;;;;;5051686;28;1673;-71
2022/04/29 06:07:50;;;;;;;;;;;;;;;;;;5051812;28;1529;-71
2022/04/29 06:10:22;;;;;;;;;;;;;;;;;;5068482;28;1157;-72
2022/04/29 06:12:48;;;;;;;;;;;;;;;;;;5051806;28;1481;-71
2022/04/29 06:15:37;;;;;;;;;;;;;;;;;;5056774;28;1906;-72
2022/04/29 06:18:37;;;;;;;;;;;;;;;;;;5049456;28;1409;-71
2022/04/29 06:21:20;;;;;;;;;;;;;;;;;;5045077;28;1167;-70
2022/04/29 06:23:50;;;;;;;;;;;;;;;;;;5067892;28;1664;-72
2022/04/29 06:26:16;;;;;;;;;;;;;;;;;;5064488;28;1399;-71
2022/04/29 06:28:43;;;;;;;;;;;;;;;;;;5050144;28;1732;-71
2022/04/29 06:31:10;;;;;;;;;;;;;;;;;;5066088;28;1483;-71
2022/04/29 06:33:38;;;;;;;;;;;;;;;;;;5052466;28;1400;-69
2022/04/29 06:36:07;;;;;;;;;;;;;;;;;;5067925;28;1914;-71
2022/04/29 06:38:35;;;;;;;;;;;;;;;;;;5066687;28;1463;-72
2022/04/29 06:41:22;;;;;;;;;;;;;;;;;;5050172;28;1390;-71
2022/04/29 06:44:05;;;;;;;;;;;;;;;;;;5051621;28;1446;-71
2022/04/29 06:46:57;;;;;;;;;;;;;;;;;;5051967;28;1423;-70
2022/04/29 06:49:43;;;;;;;;;;;;;;;;;;5053104;28;1165;-71
2022/04/29 06:52:28;;;;;;;;;;;;;;;;;;5050662;28;1433;-70
2022/04/29 06:55:08;;;;;;;;;;;;;;;;;;5050571;28;1520;-71
2022/04/29 06:57:35;;;;;;;;;;;;;;;;;;5067207;28;1918;-71
2022/04/29 07:00:01;;;;;;;;;;;;;;;;;;5050653;28;1473;-68
2022/04/29 07:02:29;;;;;;;;;;;;;;;;;;5047580;28;1313;-69
2022/04/29 07:04:56;;;;;;;;;;;;;;;;;;5051328;28;1556;-71
2022/04/29 07:07:28;;;;;;;;;;;;;;;;;;5063038;28;1495;-72
2022/04/29 07:10:03;;;;;;;;;;;;;;;;;;5047444;28;1464;-72
2022/04/29 07:12:48;;;;;;;;;;;;;;;;;;5052502;28;1173;-72
2022/04/29 07:15:15;;;;;;;;;;;;;;;;;;5051054;28;1399;-71
2022/04/29 07:17:41;;;;;;;;;;;;;;;;;;5064993;28;1922;-70
2022/04/29 07:20:10;;;;;;;;;;;;;;;;;;5049266;28;1357;-72
2022/04/29 07:22:37;;;;;;;;;;;;;;;;;;5048266;28;1383;-71
2022/04/29 07:25:04;;;;;;;;;;;;;;;;;;5064783;28;1490;-71
2022/04/29 07:27:32;;;;;;;;;;;;;;;;;;5046429;28;1425;-71
2022/04/29 07:29:58;;;;;;;;;;;;;;;;;;5049564;28;1601;-71
2022/04/29 07:32:38;;;;;;;;;;;;;;;;;;5067091;28;1475;-71
2022/04/29 07:44:06;;;;;;;;;;;;;;;;;;5012566;28;1468;-71
2022/04/29 07:46:37;;;;;;;;;;;;;;;;;;5009545;28;1418;-70
2022/04/29 07:49:22;;;;;;;;;;;;;;;;;;5037256;28;1375;-71
2022/04/29 07:51:51;;;;;;;;;;;;;;;;;;5049952;28;1522;-72
2022/04/29 07:54:17;;;;;;;;;;;;;;;;;;5065497;28;1460;-71
2022/04/29 07:56:43;;;;;;;;;;;;;;;;;;5066240;28;1918;-72
2022/04/29 07:59:13;;;;;;;;;;;;;;;;;;5065025;28;1407;-71
2022/04/29 08:01:43;;;;;;;;;;;;;;;;;;5048573;28;1565;-72
2022/04/29 08:04:12;;;;;;;;;;;;;;;;;;5050051;28;1450;-72
2022/04/29 08:06:40;;;;;;;;;;;;;;;;;;5045409;28;1387;-72
2022/04/29 08:09:08;;;;;;;;;;;;;;;;;;5066586;28;1382;-71
2022/04/29 08:11:37;;;;;;;;;;;;;;;;;;5046423;28;1644;-72
2022/04/29 08:14:22;;;;;;;;;;;;;;;;;;5041376;28;1424;-72
2022/04/29 08:17:04;;;;;;;;;;;;;;;;;;5049490;28;1906;-72
2022/04/29 08:19:35;;;;;;;;;;;;;;;;;;5054217;28;1451;-72
2022/04/29 08:22:12;;;;;;;;;;;;;;;;;;5043699;28;1309;-69
2022/04/29 08:24:40;;;;;;;;;;;;;;;;;;5048260;28;1190;-71
2022/04/29 08:27:06;;;;;;;;;;;;;;;;;;5044888;28;1423;-71
2022/04/29 08:29:35;;;;;;;;;;;;;;;;;;5048309;28;1678;-70
2022/04/29 08:32:05;;;;;;;;;;;;;;;;;;5065726;28;1650;-71
2022/04/29 08:34:34;;;;;;;;;;;;;;;;;;5065759;28;1309;-70
2022/04/29 08:37:02;;;;;;;;;;;;;;;;;;5042187;28;1915;-71
2022/04/29 08:39:29;;;;;;;;;;;;;;;;;;5047554;28;1643;-71
2022/04/29 08:41:57;;;;;;;;;;;;;;;;;;5045794;28;1528;-71
2022/04/29 08:44:23;;;;;;;;;;;;;;;;;;5049321;28;1421;-71
2022/04/29 08:47:04;;;;;;;;;;;;;;;;;;5064894;28;1449;-71
2022/04/29 08:49:53;;;;;;;;;;;;;;;;;;5027392;28;1072;-73
2022/04/29 08:52:19;;;;;;;;;;;;;;;;;;5047127;28;938;-71
2022/04/29 09:00:14;;;;;;;;;;;;;;;;;;5049840;28;1185;-71
2022/04/29 09:02:41;;;;;;;;;;;;;;;;;;5041580;28;1247;-70
2022/04/29 09:05:08;;;;;;;;;;;;;;;;;;5050260;28;1277;-70
2022/04/29 09:07:54;;;;;;;;;;;;;;;;;;5049195;28;1353;-72
2022/04/29 09:10:20;;;;;;;;;;;;;;;;;;5049819;28;894;-70
2022/04/29 09:12:48;;;;;;;;;;;;;;;;;;5048591;28;2255;-71
2022/04/29 09:15:15;;;;;;;;;;;;;;;;;;5040530;28;1382;-70
2022/04/29 09:17:43;;;;;;;;;;;;;;;;;;5048248;28;1910;-71
2022/04/29 09:20:13;;;;;;;;;;;;;;;;;;5062953;23;3572;-71
2022/04/29 09:22:40;;;;;;;;;;;;;;;;;;5032486;28;1539;-70
2022/04/29 09:25:31;;;;;;;;;;;;;;;;;;5032322;28;1443;-71
2022/04/29 09:28:22;;;;;;;;;;;;;;;;;;5050813;28;1464;-71
2022/04/29 09:31:04;;;;;;;;;;;;;;;;;;5045828;28;1676;-71
2022/04/29 09:34:08;;;;;;;;;;;;;;;;;;5036100;28;1409;-72
2022/04/29 09:36:43;;;;;;;;;;;;;;;;;;5047006;28;1895;-70
2022/04/29 09:39:27;;;;;;;;;;;;;;;;;;5042085;28;1402;-71
2022/04/29 09:41:53;;;;;;;;;;;;;;;;;;5042710;28;1485;-71
2022/04/29 09:44:27;;;;;;;;;;;;;;;;;;5035337;28;1433;-71
2022/04/29 09:46:53;;;;;;;;;;;;;;;;;;5038986;28;1401;-71
2022/04/29 09:49:21;;;;;;;;;;;;;;;;;;5047267;28;1394;-71
2022/04/29 09:51:48;;;;;;;;;;;;;;;;;;5058317;28;1413;-71
2022/04/29 09:54:16;;;;;;;;;;;;;;;;;;5039929;28;1502;-71
2022/04/29 09:56:42;;;;;;;;;;;;;;;;;;5037860;28;1982;-71
2022/04/29 09:59:09;;;;;;;;;;;;;;;;;;5041320;28;1465;-74
2022/04/29 10:01:36;;;;;;;;;;;;;;;;;;5042936;28;1597;-72
2022/04/29 10:04:03;;;;;;;;;;;;;;;;;;5035709;28;1165;-71
2022/04/29 10:06:29;;;;;;;;;;;;;;;;;;5046948;28;1430;-73
2022/04/29 10:08:58;;;;;;;;;;;;;;;;;;5044754;28;1378;-71
2022/04/29 10:11:24;;;;;;;;;;;;;;;;;;5042022;28;1590;-72
2022/04/29 10:13:50;;;;;;;;;;;;;;;;;;5045442;28;1455;-71
2022/04/29 10:16:21;;;;;;;;;;;;;;;;;;5035791;28;1367;-71
2022/04/29 10:21:58;;;;;;;;;;;;;;;;;;5048206;28;1302;-72
2022/04/29 10:24:25;;;;;;;;;;;;;;;;;;5063729;28;1586;-71
2022/04/29 10:26:51;;;;;;;;;;;;;;;;;;5040160;28;1668;-72
2022/04/29 10:29:18;;;;;;;;;;;;;;;;;;5052152;28;893;-72
2022/04/29 10:31:46;;;;;;;;;;;;;;;;;;5045913;28;1516;-72
2022/04/29 10:34:29;;;;;;;;;;;;;;;;;;5040243;28;1410;-72
2022/04/29 10:36:56;;;;;;;;;;;;;;;;;;5040263;28;1981;-72
2022/04/29 10:39:22;;;;;;;;;;;;;;;;;;5039209;28;1417;-72
2022/04/29 10:41:58;;;;;;;;;;;;;;;;;;5040118;28;1517;-72
2022/04/29 10:44:24;;;;;;;;;;;;;;;;;;5051596;28;1366;-70
2022/04/29 10:46:50;;;;;;;;;;;;;;;;;;5044616;28;1433;-72
2022/04/29 10:49:44;;;;;;;;;;;;;;;;;;5042539;28;1519;-72
2022/04/29 10:52:26;;;;;;;;;;;;;;;;;;5044669;28;1437;-71
2022/04/29 10:55:05;;;;;;;;;;;;;;;;;;5041116;28;1232;-72
2022/04/29 10:57:38;;;;;;;;;;;;;;;;;;5041066;28;2301;-71
2022/04/29 11:00:08;;;;;;;;;;;;;;;;;;5050958;28;2155;-72
2022/04/29 11:02:39;;;;;;;;;;;;;;;;;;5042228;28;2427;-71
2022/04/29 11:05:07;;;;;;;;;;;;;;;;;;5041219;28;1236;-72
2022/04/29 11:07:42;;;;;;;;;;;;;;;;;;5033675;28;1552;-72
2022/04/29 11:10:12;;;;;;;;;;;;;;;;;;5045948;28;1353;-71
2022/04/29 11:12:40;;;;;;;;;;;;;;;;;;5067818;28;1424;-72
2022/04/29 11:15:40;;;;;;;;;;;;;;;;;;5043018;28;1446;-73
2022/04/29 11:18:13;;;;;;;;;;;;;;;;;;5064357;28;1965;-72
2022/04/29 11:20:42;;;;;;;;;;;;;;;;;;5042547;28;1442;-72
2022/04/29 11:25:54;;;;;;;;;;;;;;;;;;5059082;28;1534;-72
2022/04/29 11:28:28;;;;;;;;;;;;;;;;;;5046775;28;1469;-71
2022/04/29 11:31:34;;;;;;;;;;;;;;;;;;5008253;28;1456;-72
2022/04/29 11:34:04;;;;;;;;;;;;;;;;;;5039037;28;1353;-74
2022/04/29 11:36:32;;;;;;;;;;;;;;;;;;5046605;28;1514;-73
2022/04/29 11:38:58;;;;;;;;;;;;;;;;;;5037078;28;1934;-74
2022/04/29 11:41:27;;;;;;;;;;;;;;;;;;5045417;28;1494;-72
2022/04/29 11:43:53;;;;;;;;;;;;;;;;;;5043746;28;1173;-73
2022/04/29 11:46:20;;;;;;;;;;;;;;;;;;5044584;28;1719;-73
2022/04/29 11:48:51;;;;;;;;;;;;;;;;;;5043521;28;1743;-73
2022/04/29 11:51:17;;;;;;;;;;;;;;;;;;5044953;28;2478;-72
2022/04/29 11:53:53;;;;;;;;;;;;;;;;;;5046161;28;1506;-72
2022/04/29 11:56:19;;;;;;;;;;;;;;;;;;5032663;28;1497;-70
2022/04/29 11:58:46;;;;;;;;;;;;;;;;;;5042613;28;1981;-73
2022/04/29 12:01:14;;;;;;;;;;;;;;;;;;5033989;28;1378;-72
2022/04/29 12:03:45;;;;;;;;;;;;;;;;;;5039088;28;1193;-72
2022/04/29 12:06:12;;;;;;;;;;;;;;;;;;5030350;28;1111;-72
2022/04/29 12:08:39;;;;;;;;;;;;;;;;;;5030925;28;1483;-72
2022/04/29 12:11:29;;;;;;;;;;;;;;;;;;5032092;28;1299;-72
2022/04/29 12:13:55;;;;;;;;;;;;;;;;;;5032222;28;964;-72
2022/04/29 12:16:21;;;;;;;;;;;;;;;;;;5032170;28;1079;-72
2022/04/29 12:18:48;;;;;;;;;;;;;;;;;;5030804;28;1906;-73
2022/04/29 12:21:20;;;;;;;;;;;;;;;;;;5031516;28;1313;-72
2022/04/29 12:23:46;;;;;;;;;;;;;;;;;;5032155;28;969;-73
2022/04/29 12:26:12;;;;;;;;;;;;;;;;;;5032067;28;882;-72
2022/04/29 12:28:41;;;;;;;;;;;;;;;;;;5032480;28;811;-72
2022/04/29 12:36:47;;;;;;;;;;;;;;;;;;5030365;28;1581;-73
2022/04/29 12:39:15;;;;;;;;;;;;;;;;;;5032135;28;1922;-73
2022/04/29 12:41:42;;;;;;;;;;;;;;;;;;5030822;28;1333;-72
2022/04/29 12:44:10;;;;;;;;;;;;;;;;;;5032119;28;926;-73
2022/04/29 12:46:36;;;;;;;;;;;;;;;;;;5031571;28;1052;-73
2022/04/29 12:49:03;;;;;;;;;;;;;;;;;;5031813;28;779;-73
2022/04/29 12:51:31;;;;;;;;;;;;;;;;;;5030194;28;1408;-73
2022/04/29 12:53:58;;;;;;;;;;;;;;;;;;5031573;28;1071;-73
2022/04/29 12:56:24;;;;;;;;;;;;;;;;;;5031440;28;1071;-72
2022/04/29 12:58:51;;;;;;;;;;;;;;;;;;5031303;28;1908;-72
2022/04/29 13:01:18;;;;;;;;;;;;;;;;;;5031175;28;1373;-72
2022/04/29 13:03:51;;;;;;;;;;;;;;;;;;5029794;28;1231;-73
2022/04/29 13:06:55;;;;;;;;;;;;;;;;;;5020810;28;1352;-71
2022/04/29 13:09:22;;;;;;;;;;;;;;;;;;5030103;28;1151;-74
2022/04/29 13:11:48;;;;;;;;;;;;;;;;;;5031224;28;1330;-73
2022/04/29 13:14:33;;;;;;;;;;;;;;;;;;5029987;28;1498;-74
2022/04/29 13:17:01;;;;;;;;;;;;;;;;;;5030286;28;1100;-73
2022/04/29 13:19:27;;;;;;;;;;;;;;;;;;5031014;28;1981;-73
2022/04/29 13:21:53;;;;;;;;;;;;;;;;;;5030511;28;1278;-74
2022/04/29 13:24:19;;;;;;;;;;;;;;;;;;5029832;28;1343;-73
2022/04/29 13:26:48;;;;;;;;;;;;;;;;;;5028939;28;1359;-73
2022/04/29 13:29:15;;;;;;;;;;;;;;;;;;5029659;28;1455;-73
2022/04/29 13:31:41;;;;;;;;;;;;;;;;;;5030699;28;1290;-71
2022/04/29 13:34:09;;;;;;;;;;;;;;;;;;5030945;28;795;-73
2022/04/29 13:36:36;;;;;;;;;;;;;;;;;;5030453;28;917;-73
2022/04/29 13:39:02;;;;;;;;;;;;;;;;;;5030586;28;1918;-72
2022/04/29 13:41:33;;;;;;;;;;;;;;;;;;5029258;28;1610;-73
2022/04/29 13:43:59;;;;;;;;;;;;;;;;;;5030837;28;1093;-71
2022/04/29 13:46:25;;;;;;;;;;;;;;;;;;5030641;28;797;-73
2022/04/29 13:48:52;;;;;;;;;;;;;;;;;;5030956;28;941;-72
2022/04/29 13:51:19;;;;;;;;;;;;;;;;;;5037849;28;1745;-73
2022/04/29 13:53:45;;;;;;;;;;;;;;;;;;5050608;28;783;-72
2022/04/29 13:56:11;;;;;;;;;;;;;;;;;;5050095;28;1051;-74
2022/04/29 13:58:38;;;;;;;;;;;;;;;;;;5050010;28;1981;-71
2022/04/29 14:01:04;;;;;;;;;;;;;;;;;;5050328;28;1333;-73
2022/04/29 14:03:30;;;;;;;;;;;;;;;;;;5050474;28;727;-72
2022/04/29 14:05:56;;;;;;;;;;;;;;;;;;5050485;28;1067;-72
2022/04/29 14:08:25;;;;;;;;;;;;;;;;;;5045085;28;2047;-71
2022/04/29 14:10:52;;;;;;;;;;;;;;;;;;5034957;28;1401;-71
2022/04/29 14:13:18;;;;;;;;;;;;;;;;;;5037687;28;1201;-71
2022/04/29 14:15:45;;;;;;;;;;;;;;;;;;5031479;28;946;-72
2022/04/29 14:18:11;;;;;;;;;;;;;;;;;;5034850;28;1977;-72
2022/04/29 14:20:37;;;;;;;;;;;;;;;;;;5037423;28;1285;-72
2022/04/29 14:23:04;;;;;;;;;;;;;;;;;;5038110;28;1091;-72
2022/04/29 14:25:32;;;;;;;;;;;;;;;;;;5034300;28;1309;-70
2022/04/29 14:27:59;;;;;;;;;;;;;;;;;;5033961;28;851;-71
2022/04/29 14:30:25;;;;;;;;;;;;;;;;;;5033705;28;1425;-72
2022/04/29 14:32:53;;;;;;;;;;;;;;;;;;5034073;28;799;-73
2022/04/29 14:35:20;;;;;;;;;;;;;;;;;;5032689;28;1045;-72
2022/04/29 14:37:49;;;;;;;;;;;;;;;;;;5032461;28;1267;-71
2022/04/29 14:40:15;;;;;;;;;;;;;;;;;;5033814;28;1993;-73
2022/04/29 14:42:43;;;;;;;;;;;;;;;;;;5033572;28;827;-72
2022/04/29 14:45:10;;;;;;;;;;;;;;;;;;5033823;28;1063;-73
2022/04/29 14:47:36;;;;;;;;;;;;;;;;;;5033074;28;1060;-72
2022/04/29 14:50:03;;;;;;;;;;;;;;;;;;5033716;28;1421;-72
2022/04/29 14:52:30;;;;;;;;;;;;;;;;;;5033718;28;898;-73
2022/04/29 14:54:56;;;;;;;;;;;;;;;;;;5033695;28;1115;-73
2022/04/29 14:57:22;;;;;;;;;;;;;;;;;;5033339;28;869;-73
2022/04/29 14:59:50;;;;;;;;;;;;;;;;;;5033666;28;1922;-73
2022/04/29 15:02:16;;;;;;;;;;;;;;;;;;5032148;28;1382;-71
2022/04/29 15:04:42;;;;;;;;;;;;;;;;;;5034412;28;1075;-72
2022/04/29 15:07:08;;;;;;;;;;;;;;;;;;5034175;28;1151;-73
2022/04/29 15:17:44;;;;;;;;;;;;;;;;;;5051538;28;1215;-72
2022/04/29 15:20:10;;;;;;;;;;;;;;;;;;5052792;28;1914;-72
2022/04/29 15:22:37;;;;;;;;;;;;;;;;;;5065511;22;2079;-71
2022/04/29 15:25:04;;;;;;;;;;;;;;;;;;5030819;28;1136;-70
2022/04/29 15:27:30;;;;;;;;;;;;;;;;;;5029883;28;1250;-70
2022/04/29 15:29:56;;;;;;;;;;;;;;;;;;5033211;28;969;-69
2022/04/29 15:32:24;;;;;;;;;;;;;;;;;;5034554;28;1461;-70
2022/04/29 15:34:50;;;;;;;;;;;;;;;;;;5052867;28;1080;-71
2022/04/29 15:37:16;;;;;;;;;;;;;;;;;;5052398;28;1071;-70
2022/04/29 15:39:43;;;;;;;;;;;;;;;;;;5050987;28;1926;-70
2022/04/29 15:42:09;;;;;;;;;;;;;;;;;;5052578;28;1316;-69
2022/04/29 15:44:36;;;;;;;;;;;;;;;;;;5052409;28;1459;-70
2022/04/29 15:47:02;;;;;;;;;;;;;;;;;;5052632;28;1100;-70
2022/04/29 15:49:30;;;;;;;;;;;;;;;;;;5052663;28;1151;-70
2022/04/29 15:51:56;;;;;;;;;;;;;;;;;;5051481;28;1039;-68
2022/04/29 15:54:23;;;;;;;;;;;;;;;;;;5052225;28;1407;-71
2022/04/29 15:56:49;;;;;;;;;;;;;;;;;;5052291;28;953;-70
2022/04/29 15:59:16;;;;;;;;;;;;;;;;;;5052512;28;1966;-70
2022/04/29 16:01:43;;;;;;;;;;;;;;;;;;5052352;28;837;-70
2022/04/29 16:04:11;;;;;;;;;;;;;;;;;;5052488;28;1326;-70
2022/04/29 16:06:39;;;;;;;;;;;;;;;;;;5052311;28;794;-70
2022/04/29 16:09:06;;;;;;;;;;;;;;;;;;5052187;28;1123;-69
2022/04/29 16:11:32;;;;;;;;;;;;;;;;;;5051851;28;1104;-71
2022/04/29 16:13:58;;;;;;;;;;;;;;;;;;5052342;28;1408;-70
2022/04/29 16:16:24;;;;;;;;;;;;;;;;;;5051972;28;949;-69
2022/04/29 16:21:36;;;;;;;;;;;;;;;;;;5051748;28;920;-69
2022/04/29 16:26:48;;;;;;;;;;;;;;;;;;5051672;28;933;-71
2022/04/29 16:29:17;;;;;;;;;;;;;;;;;;5051735;28;1011;-71
2022/04/29 16:31:45;;;;;;;;;;;;;;;;;;5050242;28;1950;-70
2022/04/29 16:34:12;;;;;;;;;;;;;;;;;;5051994;28;1436;-69
2022/04/29 16:36:38;;;;;;;;;;;;;;;;;;5051361;28;1108;-70
2022/04/29 16:39:06;;;;;;;;;;;;;;;;;;5051372;28;1906;-71
2022/04/29 16:41:32;;;;;;;;;;;;;;;;;;5051473;28;968;-71
2022/04/29 16:43:59;;;;;;;;;;;;;;;;;;5051628;28;1324;-71
2022/04/29 16:46:25;;;;;;;;;;;;;;;;;;5050316;28;1298;-71
2022/04/29 16:48:51;;;;;;;;;;;;;;;;;;5051410;28;774;-69
2022/04/29 16:51:18;;;;;;;;;;;;;;;;;;5051542;28;798;-71
2022/04/29 16:53:44;;;;;;;;;;;;;;;;;;5051489;28;1258;-70
2022/04/29 16:56:11;;;;;;;;;;;;;;;;;;5051425;28;771;-70
2022/04/29 16:58:43;;;;;;;;;;;;;;;;;;5051180;28;1921;-70
2022/04/29 17:01:09;;;;;;;;;;;;;;;;;;5051607;28;802;-68
2022/04/29 17:03:35;;;;;;;;;;;;;;;;;;5050894;28;1435;-71
2022/04/29 17:06:01;;;;;;;;;;;;;;;;;;5049744;28;1422;-69
2022/04/29 17:08:28;;;;;;;;;;;;;;;;;;5050941;28;1044;-71
2022/04/29 17:10:55;;;;;;;;;;;;;;;;;;5049924;28;1300;-70
2022/04/29 17:13:22;;;;;;;;;;;;;;;;;;5050827;28;1306;-71
2022/04/29 17:15:48;;;;;;;;;;;;;;;;;;5051355;28;1604;-71
2022/04/29 17:18:17;;;;;;;;;;;;;;;;;;5050757;28;1132;-71
2022/04/29 17:20:43;;;;;;;;;;;;;;;;;;5050594;28;1967;-67
2022/04/29 17:23:09;;;;;;;;;;;;;;;;;;5051014;28;1310;-71
2022/04/29 17:25:36;;;;;;;;;;;;;;;;;;5050838;28;1147;-70
2022/04/29 17:28:02;;;;;;;;;;;;;;;;;;5050584;28;869;-69
2022/04/29 17:30:30;;;;;;;;;;;;;;;;;;5049621;28;1159;-71
2022/04/29 17:32:56;;;;;;;;;;;;;;;;;;5051045;28;1388;-71
2022/04/29 17:35:22;;;;;;;;;;;;;;;;;;5050929;28;1059;-70
2022/04/29 17:37:48;;;;;;;;;;;;;;;;;;5050707;28;875;-71
2022/04/29 17:43:00;;;;;;;;;;;;;;;;;;5050104;28;1467;-70
2022/04/29 17:45:26;;;;;;;;;;;;;;;;;;5050431;28;1542;-69
2022/04/29 17:47:54;;;;;;;;;;;;;;;;;;5050608;28;1043;-71
2022/04/29 17:50:21;;;;;;;;;;;;;;;;;;5049978;28;827;-69
2022/04/29 17:52:48;;;;;;;;;;;;;;;;;;5050084;28;1292;-70
2022/04/29 17:55:15;;;;;;;;;;;;;;;;;;5050782;28;782;-68
2022/04/29 17:57:43;;;;;;;;;;;;;;;;;;5050414;28;929;-70
2022/04/29 18:00:10;;;;;;;;;;;;;;;;;;5050973;28;1969;-68
2022/04/29 18:02:39;;;;;;;;;;;;;;;;;;5050088;28;1397;-69
2022/04/29 18:05:08;;;;;;;;;;;;;;;;;;5050389;28;771;-70
2022/04/29 18:07:34;;;;;;;;;;;;;;;;;;5050256;28;1075;-70